createdAt,value
2023-03-25T00:01:15.462Z,13.14
2023-03-25T00:03:46.784Z,13.08
2023-03-25T00:06:14.075Z,13.00
2023-03-25T00:08:41.003Z,12.90
2023-03-25T00:11:08.533Z,12.86
2023-03-25T00:13:38.275Z,12.84
2023-03-25T00:16:07.169Z,12.74
2023-03-25T00:18:34.000Z,12.64
2023-03-25T00:21:03.205Z,12.57
2023-03-25T00:23:32.181Z,12.56
2023-03-25T00:26:00.553Z,12.51
2023-03-25T00:28:30.900Z,12.42
2023-03-25T00:31:06.420Z,12.43
2023-03-25T00:33:35.633Z,12.41
2023-03-25T00:36:04.762Z,12.42
2023-03-25T00:38:35.595Z,12.41
2023-03-25T00:41:10.016Z,12.41
2023-03-25T00:43:37.559Z,12.40
2023-03-25T00:46:05.559Z,12.41
2023-03-25T00:48:32.649Z,12.56
2023-03-25T00:51:07.388Z,12.73
2023-03-25T00:53:35.834Z,12.73
2023-03-25T00:56:04.534Z,12.73
2023-03-25T00:58:31.778Z,12.76
2023-03-25T01:00:59.708Z,12.71
2023-03-25T01:03:29.452Z,12.72
2023-03-25T01:05:58.102Z,12.76
2023-03-25T01:08:25.705Z,12.71
2023-03-25T01:10:54.548Z,12.70
2023-03-25T01:13:23.001Z,12.76
2023-03-25T01:15:51.342Z,12.87
2023-03-25T01:18:18.390Z,12.94
2023-03-25T01:20:45.369Z,12.89
2023-03-25T01:23:12.187Z,12.75
2023-03-25T01:25:39.673Z,12.66
2023-03-25T01:28:07.291Z,12.68
2023-03-25T01:30:35.644Z,12.78
2023-03-25T01:33:02.865Z,12.87
2023-03-25T01:35:30.194Z,12.84
2023-03-25T01:38:01.183Z,12.67
2023-03-25T01:40:29.768Z,12.56
2023-03-25T01:42:57.221Z,12.48
2023-03-25T01:45:35.204Z,12.46
2023-03-25T01:48:10.273Z,12.39
2023-03-25T01:50:41.253Z,12.28
2023-03-25T01:53:10.156Z,11.94
2023-03-25T01:55:38.474Z,11.63
2023-03-25T01:58:12.172Z,11.49
2023-03-25T02:00:45.495Z,11.41
2023-03-25T02:03:16.656Z,11.36
2023-03-25T02:05:59.036Z,11.36
2023-03-25T02:08:26.258Z,11.37
2023-03-25T02:10:53.874Z,11.42
2023-03-25T02:13:22.387Z,11.44
2023-03-25T02:16:31.742Z,11.52
2023-03-25T02:19:18.000Z,11.41
2023-03-25T02:22:12.152Z,11.42
2023-03-25T02:25:04.175Z,11.45
2023-03-25T02:27:51.958Z,11.42
2023-03-25T02:30:42.512Z,11.34
2023-03-25T02:33:11.666Z,11.31
2023-03-25T02:36:12.239Z,11.34
2023-03-25T02:38:48.654Z,11.30
2023-03-25T02:41:41.991Z,11.33
2023-03-25T02:44:24.054Z,11.34
2023-03-25T02:46:59.540Z,11.35
2023-03-25T02:49:53.501Z,11.31
2023-03-25T02:52:24.586Z,11.32
2023-03-25T02:54:58.192Z,11.37
2023-03-25T02:57:31.316Z,11.43
2023-03-25T03:00:00.117Z,11.44
2023-03-25T03:02:34.276Z,11.46
2023-03-25T03:05:01.872Z,11.47
2023-03-25T03:07:42.717Z,11.50
2023-03-25T03:10:26.892Z,11.50
2023-03-25T03:13:19.229Z,11.44
2023-03-25T03:15:51.187Z,11.48
2023-03-25T03:18:38.328Z,11.46
2023-03-25T03:21:24.139Z,11.48
2023-03-25T03:23:58.225Z,11.49
2023-03-25T03:26:34.251Z,11.53
2023-03-25T03:29:21.156Z,11.57
2023-03-25T03:32:07.387Z,11.51
2023-03-25T03:35:19.079Z,11.50
2023-03-25T03:37:52.821Z,11.37
2023-03-25T03:40:23.504Z,11.23
2023-03-25T03:42:53.804Z,11.10
2023-03-25T03:45:58.138Z,10.98
2023-03-25T03:48:53.412Z,10.91
2023-03-25T03:54:58.821Z,10.68
2023-03-25T03:57:56.689Z,10.73
2023-03-25T04:00:55.080Z,10.84
2023-03-25T04:05:12.763Z,10.99
2023-03-25T04:08:31.315Z,11.01
2023-03-25T04:11:44.358Z,10.89
2023-03-25T04:14:48.016Z,10.77
2023-03-25T04:17:39.622Z,10.72
2023-03-25T04:20:15.375Z,10.73
2023-03-25T04:22:46.068Z,10.82
2023-03-25T04:25:14.492Z,10.85
2023-03-25T04:27:41.742Z,10.92
2023-03-25T04:30:10.057Z,11.02
2023-03-25T04:32:37.644Z,11.08
2023-03-25T04:35:09.912Z,11.10
2023-03-25T04:37:38.379Z,11.10
2023-03-25T04:40:09.787Z,11.09
2023-03-25T04:42:37.693Z,11.20
2023-03-25T04:45:13.724Z,11.28
2023-03-25T04:47:47.596Z,11.31
2023-03-25T04:50:28.186Z,11.36
2023-03-25T04:53:03.232Z,11.36
2023-03-25T04:55:31.598Z,11.40
2023-03-25T04:58:00.008Z,11.47
2023-03-25T05:00:28.085Z,11.44
2023-03-25T05:02:56.672Z,11.48
2023-03-25T05:05:26.142Z,11.47
2023-03-25T05:07:55.585Z,11.46
2023-03-25T05:10:24.817Z,11.38
2023-03-25T05:13:06.853Z,11.37
2023-03-25T05:15:39.656Z,11.27
2023-03-25T05:18:13.920Z,11.30
2023-03-25T05:20:43.834Z,11.33
2023-03-25T05:23:20.135Z,11.31
2023-03-25T05:25:52.229Z,11.37
2023-03-25T05:28:20.149Z,11.37
2023-03-25T05:30:50.374Z,11.38
2023-03-25T05:33:23.602Z,11.44
2023-03-25T05:35:51.579Z,11.43
2023-03-25T05:38:19.140Z,11.39
2023-03-25T05:40:51.195Z,11.36
2023-03-25T05:43:23.301Z,11.31
2023-03-25T05:45:56.659Z,11.28
2023-03-25T05:48:27.498Z,11.28
2023-03-25T05:50:57.003Z,11.30
2023-03-25T05:53:25.869Z,11.37
2023-03-25T05:55:54.307Z,11.39
2023-03-25T05:58:22.840Z,11.40
2023-03-25T06:00:50.512Z,11.40
2023-03-25T06:03:22.794Z,11.48
2023-03-25T06:05:54.159Z,11.56
2023-03-25T06:08:26.662Z,11.65
2023-03-25T06:11:01.113Z,11.74
2023-03-25T06:13:37.499Z,11.82
2023-03-25T06:16:10.182Z,11.91
2023-03-25T06:18:41.621Z,11.90
2023-03-25T06:21:14.699Z,11.85
2023-03-25T06:23:43.185Z,11.91
2023-03-25T06:26:14.098Z,11.91
2023-03-25T06:28:46.422Z,11.89
2023-03-25T06:31:19.225Z,11.86
2023-03-25T06:33:48.707Z,11.90
2023-03-25T06:36:19.079Z,11.97
2023-03-25T06:38:48.598Z,12.04
2023-03-25T06:41:21.561Z,12.00
2023-03-25T06:43:56.246Z,12.02
2023-03-25T06:46:46.971Z,12.07
2023-03-25T06:49:24.944Z,12.16
2023-03-25T06:51:55.765Z,12.25
2023-03-25T06:54:23.420Z,12.26
2023-03-25T06:56:50.973Z,12.27
2023-03-25T06:59:18.315Z,12.19
2023-03-25T07:01:48.420Z,12.34
2023-03-25T07:04:19.702Z,12.32
2023-03-25T07:06:46.893Z,12.25
2023-03-25T07:09:17.105Z,12.25
2023-03-25T07:11:44.571Z,12.31
2023-03-25T07:14:11.946Z,12.56
2023-03-25T07:16:39.337Z,12.92
2023-03-25T07:19:06.822Z,13.06
2023-03-25T07:21:40.466Z,13.20
2023-03-25T07:24:08.036Z,13.24
2023-03-25T07:26:38.212Z,13.46
2023-03-25T07:29:06.743Z,13.54
2023-03-25T07:31:37.426Z,13.45
2023-03-25T07:34:05.961Z,13.22
2023-03-25T07:36:33.192Z,13.42
2023-03-25T07:39:00.443Z,13.54
2023-03-25T07:41:27.409Z,13.48
2023-03-25T07:44:20.416Z,13.50
2023-03-25T07:46:49.680Z,13.43
2023-03-25T07:49:20.328Z,13.37
2023-03-25T07:51:49.400Z,13.69
2023-03-25T07:54:16.751Z,13.83
2023-03-25T07:56:43.794Z,14.00
2023-03-25T07:59:10.770Z,14.26
2023-03-25T08:01:38.042Z,14.46
2023-03-25T08:04:05.348Z,14.69
2023-03-25T08:06:32.456Z,14.92
2023-03-25T08:08:59.589Z,14.76
2023-03-25T08:11:26.899Z,14.72
2023-03-25T08:13:53.740Z,14.66
2023-03-25T08:16:21.338Z,14.53
2023-03-25T08:18:48.882Z,14.33
2023-03-25T08:21:16.683Z,14.22
2023-03-25T08:23:44.714Z,14.52
2023-03-25T08:26:11.472Z,14.65
2023-03-25T08:28:38.188Z,15.05
2023-03-25T08:31:08.572Z,15.41
2023-03-25T08:33:39.666Z,15.50
2023-03-25T08:36:10.170Z,15.48
2023-03-25T08:38:37.130Z,15.45
2023-03-25T08:41:05.545Z,15.76
2023-03-25T08:43:32.348Z,16.02
2023-03-25T08:45:59.039Z,16.23
2023-03-25T08:48:26.192Z,16.51
2023-03-25T08:50:53.494Z,16.64
2023-03-25T08:53:20.579Z,16.68
2023-03-25T08:55:50.609Z,16.68
2023-03-25T08:58:18.261Z,16.62
2023-03-25T09:00:45.838Z,16.84
2023-03-25T09:03:13.444Z,17.01
2023-03-25T09:05:41.093Z,17.23
2023-03-25T09:08:09.962Z,17.75
2023-03-25T09:10:38.244Z,18.58
2023-03-25T09:13:05.038Z,18.58
2023-03-25T09:15:32.373Z,18.27
2023-03-25T09:17:59.317Z,17.72
2023-03-25T09:20:26.671Z,17.16
2023-03-25T09:22:53.500Z,16.53
2023-03-25T09:25:20.613Z,15.96
2023-03-25T09:27:47.445Z,15.76
2023-03-25T09:30:15.527Z,15.91
2023-03-25T09:32:42.358Z,15.90
2023-03-25T09:35:09.414Z,16.02
2023-03-25T09:37:36.454Z,16.44
2023-03-25T09:40:05.338Z,18.98
2023-03-25T09:42:44.201Z,20.00
2023-03-25T09:45:26.650Z,18.93
2023-03-25T09:48:16.061Z,18.18
2023-03-25T09:50:44.225Z,18.16
2023-03-25T09:53:11.273Z,18.26
2023-03-25T09:55:44.861Z,18.30
2023-03-25T09:58:31.889Z,17.79
2023-03-25T10:01:19.323Z,17.87
2023-03-25T10:04:11.331Z,17.53
2023-03-25T10:06:51.732Z,16.59
2023-03-25T10:09:18.554Z,17.67
2023-03-25T10:12:00.502Z,17.67
2023-03-25T10:14:52.815Z,16.94
2023-03-25T10:17:42.700Z,16.55
2023-03-25T10:20:18.562Z,16.44
2023-03-25T10:23:06.524Z,16.26
2023-03-25T10:25:38.412Z,16.15
2023-03-25T10:28:08.839Z,16.16
2023-03-25T10:30:43.049Z,17.45
2023-03-25T10:33:41.722Z,17.24
2023-03-25T10:36:28.445Z,16.77
2023-03-25T10:38:55.683Z,16.31
2023-03-25T10:41:39.411Z,16.08
2023-03-25T10:44:27.408Z,15.66
2023-03-25T10:47:12.757Z,15.51
2023-03-25T10:49:41.845Z,15.49
2023-03-25T10:52:09.905Z,15.42
2023-03-25T10:54:44.399Z,15.23
2023-03-25T10:57:20.321Z,15.07
2023-03-25T11:00:26.829Z,14.92
2023-03-25T11:02:56.323Z,14.65
2023-03-25T11:05:27.992Z,14.34
2023-03-25T11:08:18.057Z,14.14
2023-03-25T11:10:51.673Z,14.33
2023-03-25T11:13:22.130Z,14.63
2023-03-25T11:15:50.221Z,15.11
2023-03-25T11:18:28.503Z,16.75
2023-03-25T11:21:13.005Z,18.74
2023-03-25T11:23:47.835Z,22.92
2023-03-25T11:26:27.884Z,23.74
2023-03-25T11:29:02.114Z,24.74
2023-03-25T11:31:34.045Z,23.90
2023-03-25T11:34:16.435Z,22.70
2023-03-25T11:37:04.676Z,20.45
2023-03-25T11:39:42.509Z,18.97
2023-03-25T11:42:11.430Z,18.17
2023-03-25T11:44:38.246Z,18.48
2023-03-25T11:47:09.581Z,21.24
2023-03-25T11:49:42.660Z,24.83
2023-03-25T11:52:18.881Z,27.18
2023-03-25T11:54:47.731Z,29.09
2023-03-25T11:57:31.545Z,29.98
2023-03-25T12:00:17.353Z,31.39
2023-03-25T12:02:44.623Z,32.11
2023-03-25T12:05:14.431Z,32.62
2023-03-25T12:07:51.947Z,32.92
2023-03-25T12:10:48.155Z,32.99
2023-03-25T12:13:41.086Z,33.58
2023-03-25T12:16:18.723Z,34.43
2023-03-25T12:19:10.207Z,34.83
2023-03-25T12:22:01.461Z,33.86
2023-03-25T12:24:58.580Z,31.85
2023-03-25T12:27:59.868Z,29.25
2023-03-25T12:30:53.008Z,29.03
2023-03-25T12:33:22.764Z,29.11
2023-03-25T12:36:31.674Z,26.19
2023-03-25T12:39:35.605Z,24.26
2023-03-25T12:42:28.791Z,23.42
2023-03-25T12:45:01.686Z,22.31
2023-03-25T12:47:42.757Z,21.32
2023-03-25T12:50:45.889Z,20.76
2023-03-25T12:53:55.685Z,20.46
2023-03-25T12:56:50.555Z,19.87
2023-03-25T12:59:50.261Z,19.70
2023-03-25T13:02:32.499Z,19.61
2023-03-25T13:05:12.414Z,19.01
2023-03-25T13:07:42.556Z,18.91
2023-03-25T13:10:19.799Z,18.82
2023-03-25T13:12:59.109Z,18.70
2023-03-25T13:15:30.198Z,18.67
2023-03-25T13:18:18.757Z,18.55
2023-03-25T13:20:52.243Z,18.27
2023-03-25T13:23:23.649Z,18.00
2023-03-25T13:26:02.361Z,18.10
2023-03-25T13:28:38.693Z,18.12
2023-03-25T13:31:17.133Z,18.07
2023-03-25T13:33:51.733Z,18.11
2023-03-25T13:36:28.090Z,18.17
2023-03-25T13:39:09.340Z,18.11
2023-03-25T13:41:44.828Z,18.08
2023-03-25T13:44:22.091Z,17.97
2023-03-25T13:46:58.822Z,17.97
2023-03-25T13:49:42.321Z,17.91
2023-03-25T13:52:09.788Z,17.98
2023-03-25T13:54:49.275Z,18.61
2023-03-25T13:57:37.874Z,18.53
2023-03-25T14:00:12.434Z,18.40
2023-03-25T14:03:09.904Z,18.25
2023-03-25T14:06:08.829Z,18.22
2023-03-25T14:08:54.857Z,18.22
2023-03-25T14:11:21.759Z,18.15
2023-03-25T14:13:56.367Z,17.94
2023-03-25T14:16:35.263Z,18.09
2023-03-25T14:19:25.453Z,18.25
2023-03-25T14:21:58.023Z,18.36
2023-03-25T14:24:32.826Z,18.46
2023-03-25T14:27:29.945Z,18.37
2023-03-25T14:30:25.074Z,18.26
2023-03-25T14:32:55.146Z,18.15
2023-03-25T14:35:31.721Z,18.11
2023-03-25T14:38:11.784Z,17.98
2023-03-25T14:40:55.459Z,17.84
2023-03-25T14:43:46.375Z,18.20
2023-03-25T14:46:14.428Z,18.24
2023-03-25T14:48:49.234Z,18.17
2023-03-25T14:51:43.971Z,18.15
2023-03-25T14:54:21.132Z,18.10
2023-03-25T14:57:01.905Z,18.11
2023-03-25T14:59:50.213Z,18.16
2023-03-25T15:02:26.970Z,18.25
2023-03-25T15:04:57.240Z,18.30
2023-03-25T15:07:46.200Z,18.25
2023-03-25T15:10:51.374Z,18.24
2023-03-25T15:13:46.675Z,18.35
2023-03-25T15:16:27.760Z,18.07
2023-03-25T15:18:54.536Z,17.88
2023-03-25T15:21:24.613Z,17.76
2023-03-25T15:23:53.835Z,17.69
2023-03-25T15:26:40.284Z,17.81
2023-03-25T15:29:44.409Z,18.07
2023-03-25T15:32:38.440Z,17.93
2023-03-25T15:35:30.593Z,17.90
2023-03-25T15:38:07.914Z,17.78
2023-03-25T15:41:00.624Z,17.84
2023-03-25T15:44:03.949Z,18.05
2023-03-25T15:46:34.046Z,18.35
2023-03-25T15:49:40.365Z,18.51
2023-03-25T15:52:16.490Z,18.17
2023-03-25T15:54:57.026Z,17.99
2023-03-25T15:57:30.381Z,17.83
2023-03-25T16:00:24.538Z,17.69
2023-03-25T16:02:59.600Z,17.61
2023-03-25T16:05:27.095Z,17.71
2023-03-25T16:07:56.261Z,17.78
2023-03-25T16:10:33.296Z,17.79
2023-03-25T16:13:03.616Z,17.87
2023-03-25T16:15:33.273Z,17.94
2023-03-25T16:18:02.517Z,17.93
2023-03-25T16:20:32.077Z,17.81
2023-03-25T16:23:00.864Z,17.49
2023-03-25T16:25:35.614Z,17.24
2023-03-25T16:28:14.853Z,17.17
2023-03-25T16:30:44.114Z,17.04
2023-03-25T16:33:13.827Z,16.96
2023-03-25T16:35:47.199Z,17.06
2023-03-25T16:38:21.986Z,17.05
2023-03-25T16:40:50.372Z,17.00
2023-03-25T16:43:23.976Z,16.87
2023-03-25T16:45:52.840Z,16.83
2023-03-25T16:48:25.552Z,16.84
2023-03-25T16:50:54.443Z,16.92
2023-03-25T16:53:22.874Z,16.96
2023-03-25T16:55:56.610Z,17.00
2023-03-25T16:58:27.121Z,17.04
2023-03-25T17:00:55.685Z,17.03
2023-03-25T17:03:44.712Z,16.98
2023-03-25T17:06:20.139Z,16.88
2023-03-25T17:08:52.699Z,16.85
2023-03-25T17:11:20.991Z,16.78
2023-03-25T17:13:52.269Z,16.66
2023-03-25T17:16:24.692Z,16.55
2023-03-25T17:18:55.452Z,16.43
2023-03-25T17:21:31.186Z,16.30
2023-03-25T17:24:00.842Z,16.16
2023-03-25T17:26:32.213Z,15.97
2023-03-25T17:29:03.030Z,15.88
2023-03-25T17:31:30.633Z,15.81
2023-03-25T17:34:04.048Z,15.70
2023-03-25T17:36:34.433Z,15.71
2023-03-25T17:39:04.097Z,15.71
2023-03-25T17:41:38.663Z,15.60
2023-03-25T17:44:06.142Z,15.48
2023-03-25T17:46:34.140Z,15.42
2023-03-25T17:49:00.964Z,15.49
2023-03-25T17:51:30.582Z,15.48
2023-03-25T17:53:57.677Z,15.32
2023-03-25T17:56:27.559Z,15.15
2023-03-25T17:58:59.921Z,14.93
2023-03-25T18:01:27.957Z,14.50
2023-03-25T18:03:55.871Z,14.07
2023-03-25T18:06:23.674Z,13.60
2023-03-25T18:08:50.873Z,13.26
2023-03-25T18:11:19.543Z,12.93
2023-03-25T18:13:47.855Z,12.87
2023-03-25T18:16:20.571Z,13.02
2023-03-25T18:18:47.575Z,13.05
2023-03-25T18:21:16.744Z,13.08
2023-03-25T18:23:48.593Z,13.13
2023-03-25T18:26:18.311Z,13.20
2023-03-25T18:28:45.570Z,13.13
2023-03-25T18:31:17.755Z,13.04
2023-03-25T18:33:48.372Z,13.02
2023-03-25T18:36:15.836Z,13.05
2023-03-25T18:38:46.371Z,13.04
2023-03-25T18:41:14.926Z,12.99
2023-03-25T18:43:42.377Z,12.93
2023-03-25T18:46:14.358Z,12.91
2023-03-25T18:48:41.839Z,12.93
2023-03-25T18:51:15.780Z,12.98
2023-03-25T18:53:42.661Z,12.94
2023-03-25T18:56:09.685Z,12.91
2023-03-25T18:58:36.765Z,12.93
2023-03-25T19:01:08.876Z,12.92
2023-03-25T19:03:39.145Z,12.89
2023-03-25T19:06:12.409Z,12.89
2023-03-25T19:08:40.592Z,12.88
2023-03-25T19:11:19.199Z,12.91
2023-03-25T19:13:49.061Z,12.91
2023-03-25T19:16:16.141Z,12.90
2023-03-25T19:18:42.999Z,12.87
2023-03-25T19:21:14.099Z,12.79
2023-03-25T19:23:41.873Z,12.86
2023-03-25T19:26:08.753Z,12.88
2023-03-25T19:28:35.521Z,12.95
2023-03-25T19:31:02.568Z,12.97
2023-03-25T19:33:31.732Z,12.96
2023-03-25T19:36:01.956Z,12.91
2023-03-25T19:38:30.106Z,12.80
2023-03-25T19:41:09.410Z,12.82
2023-03-25T19:43:36.445Z,12.79
2023-03-25T19:46:05.678Z,12.75
2023-03-25T19:48:33.145Z,12.73
2023-03-25T19:51:00.209Z,12.75
2023-03-25T19:53:28.596Z,12.82
2023-03-25T19:55:58.909Z,12.74
2023-03-25T19:58:25.677Z,12.74
2023-03-25T20:00:53.051Z,12.78
2023-03-25T20:03:23.945Z,12.75
2023-03-25T20:05:57.043Z,12.66
2023-03-25T20:08:25.707Z,12.64
2023-03-25T20:10:52.918Z,12.63
2023-03-25T20:13:19.955Z,12.65
2023-03-25T20:15:48.659Z,12.64
2023-03-25T20:18:16.056Z,12.58
2023-03-25T20:20:43.107Z,12.58
2023-03-25T20:23:10.306Z,12.52
2023-03-25T20:25:38.482Z,12.52
2023-03-25T20:28:06.231Z,12.46
2023-03-25T20:30:35.296Z,12.43
2023-03-25T20:33:02.332Z,12.36
2023-03-25T20:35:30.520Z,12.37
2023-03-25T20:37:57.416Z,12.38
2023-03-25T20:40:33.830Z,12.47
2023-03-25T20:43:08.918Z,12.49
2023-03-25T20:45:36.078Z,12.51
2023-03-25T20:48:02.875Z,12.46
2023-03-25T20:50:30.478Z,12.52
2023-03-25T20:52:57.379Z,12.51
2023-03-25T20:55:24.326Z,12.49
2023-03-25T20:57:52.084Z,12.47
2023-03-25T21:00:19.592Z,12.49
2023-03-25T21:02:47.837Z,12.40
2023-03-25T21:05:14.829Z,12.33
2023-03-25T21:07:41.674Z,12.38
2023-03-25T21:10:09.061Z,12.44
2023-03-25T21:12:43.619Z,12.38
2023-03-25T21:15:13.984Z,12.43
2023-03-25T21:17:41.414Z,12.32
2023-03-25T21:20:09.378Z,12.32
2023-03-25T21:22:43.082Z,12.32
2023-03-25T21:25:10.901Z,12.41
2023-03-25T21:27:39.741Z,12.50
2023-03-25T21:30:10.148Z,12.66
2023-03-25T21:32:41.497Z,12.65
2023-03-25T21:35:09.590Z,12.71
2023-03-25T21:37:40.665Z,12.66
2023-03-25T21:40:11.029Z,12.69
2023-03-25T21:42:41.804Z,12.75
2023-03-25T21:45:11.484Z,12.84
2023-03-25T21:47:38.264Z,12.91
2023-03-25T21:50:10.064Z,13.00
2023-03-25T21:52:38.774Z,13.03
2023-03-25T21:55:06.486Z,13.04
2023-03-25T21:57:38.232Z,12.99
2023-03-25T22:00:07.952Z,13.04
2023-03-25T22:02:39.105Z,12.98
2023-03-25T22:05:08.244Z,12.97
2023-03-25T22:07:34.933Z,13.05
2023-03-25T22:10:01.615Z,13.09
2023-03-25T22:12:28.856Z,13.04
2023-03-25T22:14:55.930Z,13.02
2023-03-25T22:17:22.611Z,13.01
2023-03-25T22:19:50.786Z,13.01
2023-03-25T22:22:21.643Z,12.97
2023-03-25T22:24:49.640Z,12.90
2023-03-25T22:27:16.929Z,12.82
2023-03-25T22:29:43.850Z,12.76
2023-03-25T22:32:12.001Z,12.66
2023-03-25T22:34:42.775Z,12.56
2023-03-25T22:37:11.241Z,12.52
2023-03-25T22:39:39.178Z,12.54
2023-03-25T22:42:06.080Z,12.51
2023-03-25T22:44:33.863Z,12.51
2023-03-25T22:47:00.843Z,12.47
2023-03-25T22:49:27.740Z,12.36
2023-03-25T22:51:55.627Z,12.26
2023-03-25T22:54:25.958Z,12.18
2023-03-25T22:56:52.849Z,12.17
2023-03-25T22:59:20.014Z,12.18
2023-03-25T23:01:46.765Z,12.19
2023-03-25T23:04:13.965Z,12.20
2023-03-25T23:06:41.995Z,12.20
2023-03-25T23:09:10.355Z,12.15
2023-03-25T23:11:38.086Z,12.15
2023-03-25T23:14:10.554Z,12.24
2023-03-25T23:16:39.036Z,12.29
2023-03-25T23:19:06.826Z,12.37
2023-03-25T23:21:36.593Z,12.41
2023-03-25T23:24:04.462Z,12.36
2023-03-25T23:26:40.229Z,12.26
2023-03-25T23:29:09.845Z,12.22
2023-03-25T23:31:41.756Z,12.29
2023-03-25T23:34:13.447Z,12.33
2023-03-25T23:36:41.113Z,12.34
2023-03-25T23:39:11.366Z,12.31
2023-03-25T23:41:42.923Z,12.29
2023-03-25T23:44:10.658Z,12.31
2023-03-25T23:46:37.608Z,12.35
2023-03-25T23:49:04.848Z,12.40
2023-03-25T23:51:39.337Z,12.43
2023-03-25T23:54:08.483Z,12.42
2023-03-25T23:56:36.414Z,12.36
2023-03-25T23:59:06.311Z,12.31
